Time;durP1;ratioP1;P1;durP2;ratioP2;P2;SDS_P1;SDS_P2;PMS_P1;PMS_P2;Temp;Humidity;BMP_temperature;BMP_pressure;BME280_temperature;BME280_humidity;BME280_pressure;Samples;Min_cycle;Max_cycle;Signal;HPM_P1;HPM_P2
2023/08/05 00:00:57;;;;;;;;;;;;;;;13.22;100.00;101656.84;5074813;28;19916;-79
2023/08/05 00:03:43;;;;;;;;;;;;;;;13.18;100.00;101656.09;5063249;28;19935;-78
2023/08/05 00:06:28;;;;;;;;;;;;;;;13.18;100.00;101649.91;5060241;28;20334;-78
2023/08/05 00:09:14;;;;;;;;;;;;;;;13.18;100.00;101650.78;5060125;28;19925;-78
2023/08/05 00:12:00;;;;;;;;;;;;;;;13.18;100.00;101650.78;5075432;28;19927;-80
2023/08/05 00:14:46;;;;;;;;;;;;;;;13.17;100.00;101642.88;5074940;28;19919;-78
2023/08/05 00:17:32;;;;;;;;;;;;;;;13.14;100.00;101641.22;5066467;28;19923;-79
2023/08/05 00:20:18;;;;;;;;;;;;;;;13.14;100.00;101638.56;5073214;28;19920;-80
2023/08/05 00:23:04;;;;;;;;;;;;;;;13.13;100.00;101650.13;5059905;28;19920;-80
2023/08/05 00:25:49;;;;;;;;;;;;;;;13.07;100.00;101647.72;5073626;28;19923;-79
2023/08/05 00:28:35;;;;;;;;;;;;;;;13.06;100.00;101646.00;5064954;28;19930;-78
2023/08/05 00:31:21;;;;;;;;;;;;;;;13.04;100.00;101637.25;5060150;28;19923;-79
2023/08/05 00:34:06;;;;;;;;;;;;;;;13.03;100.00;101640.84;5054588;28;20631;-79
2023/08/05 00:36:52;;;;;;;;;;;;;;;13.00;100.00;101635.63;5057403;28;19978;-79
2023/08/05 00:39:37;;;;;;;;;;;;;;;13.01;100.00;101640.00;5073223;28;19924;-79
2023/08/05 00:42:23;;;;;;;;;;;;;;;13.03;100.00;101641.69;5058150;28;21130;-78
2023/08/05 00:45:12;;;;;;;;;;;;;;;13.06;100.00;101640.69;5064518;28;19920;-79
2023/08/05 00:47:57;;;;;;;;;;;;;;;13.06;100.00;101638.03;5054189;28;20003;-78
2023/08/05 00:50:43;;;;;;;;;;;;;;;13.12;100.00;101639.53;5074217;28;19946;-79
2023/08/05 00:53:29;;;;;;;;;;;;;;;13.14;100.00;101633.22;5056932;28;19923;-78
2023/08/05 00:56:15;;;;;;;;;;;;;;;13.18;100.00;101641.94;5052926;28;19923;-79
2023/08/05 00:59:00;;;;;;;;;;;;;;;13.18;100.00;101634.84;5058341;28;19923;-79
2023/08/05 01:01:46;;;;;;;;;;;;;;;13.21;100.00;101630.31;5070480;28;19920;-80
2023/08/05 01:04:32;;;;;;;;;;;;;;;13.23;100.00;101625.81;5067871;28;19924;-79
2023/08/05 01:07:18;;;;;;;;;;;;;;;13.23;100.00;101626.66;5073566;28;19924;-80
2023/08/05 01:10:04;;;;;;;;;;;;;;;13.23;100.00;101625.81;5070903;28;19963;-80
2023/08/05 01:12:50;;;;;;;;;;;;;;;13.25;100.00;101615.97;5073022;28;19915;-79
2023/08/05 01:15:35;;;;;;;;;;;;;;;13.26;100.00;101615.03;5054850;28;19977;-79
2023/08/05 01:18:21;;;;;;;;;;;;;;;13.25;100.00;101618.63;5072261;28;20428;-79
2023/08/05 01:21:15;;;;;;;;;;;;;;;13.26;100.00;101609.69;5055590;28;19966;-80
2023/08/05 01:24:12;;;;;;;;;;;;;;;13.26;100.00;101601.72;5071832;28;19927;-79
2023/08/05 01:26:58;;;;;;;;;;;;;;;13.28;100.00;101599.84;5057169;28;20537;-80
2023/08/05 01:29:44;;;;;;;;;;;;;;;13.32;100.00;101598.78;5066719;28;19974;-80
2023/08/05 01:32:29;;;;;;;;;;;;;;;13.35;100.00;101606.63;5073669;28;19967;-79
2023/08/05 01:35:15;;;;;;;;;;;;;;;13.39;100.00;101604.69;5056536;28;19920;-80
2023/08/05 01:38:01;;;;;;;;;;;;;;;13.44;100.00;101608.00;5073347;28;19955;-79
2023/08/05 01:40:46;;;;;;;;;;;;;;;13.47;100.00;101601.72;5071652;28;20434;-80
2023/08/05 01:43:32;;;;;;;;;;;;;;;13.47;100.00;101599.06;5073619;28;19924;-79
2023/08/05 01:46:18;;;;;;;;;;;;;;;13.50;100.00;101598.94;5071242;28;19924;-79
2023/08/05 01:49:04;;;;;;;;;;;;;;;13.51;100.00;101600.66;5071957;28;19923;-79
2023/08/05 01:51:49;;;;;;;;;;;;;;;13.52;100.00;101605.03;5068834;28;19928;-79
2023/08/05 01:54:35;;;;;;;;;;;;;;;13.52;100.00;101605.88;5053732;28;19927;-80
2023/08/05 01:57:21;;;;;;;;;;;;;;;13.53;100.00;101606.75;5071295;28;19928;-79
2023/08/05 02:00:07;;;;;;;;;;;;;;;13.54;100.00;101596.06;5057105;28;20579;-80
2023/08/05 02:02:52;;;;;;;;;;;;;;;13.58;100.00;101599.44;5068474;28;20461;-80
2023/08/05 02:05:38;;;;;;;;;;;;;;;13.59;100.00;101601.16;5071997;28;20334;-81
2023/08/05 02:08:24;;;;;;;;;;;;;;;13.59;100.00;101606.47;5069783;28;19924;-79
2023/08/05 02:11:10;;;;;;;;;;;;;;;13.61;100.00;101609.09;5071406;28;20711;-80
2023/08/05 02:13:55;;;;;;;;;;;;;;;13.65;100.00;101611.53;5073321;28;21702;-79
2023/08/05 02:16:41;;;;;;;;;;;;;;;13.67;100.00;101604.31;5063333;28;20262;-80
2023/08/05 02:19:26;;;;;;;;;;;;;;;13.68;100.00;101606.03;5069149;28;19932;-80
2023/08/05 02:22:12;;;;;;;;;;;;;;;13.70;100.00;101600.66;5070372;28;20027;-80
2023/08/05 02:24:58;;;;;;;;;;;;;;;13.73;100.00;101591.69;5077075;28;20465;-79
2023/08/05 02:27:43;;;;;;;;;;;;;;;13.76;100.00;101591.50;5065900;28;19923;-80
2023/08/05 02:30:29;;;;;;;;;;;;;;;13.77;100.00;101585.28;5067852;28;20430;-81
2023/08/05 02:33:14;;;;;;;;;;;;;;;13.78;100.00;101584.34;5077094;28;20245;-79
2023/08/05 02:36:00;;;;;;;;;;;;;;;13.79;100.00;101580.75;5077218;28;19930;-80
2023/08/05 02:38:46;;;;;;;;;;;;;;;13.78;100.00;101571.03;5073629;28;20018;-79
2023/08/05 02:41:32;;;;;;;;;;;;;;;13.77;100.00;101571.97;5074549;28;20375;-79
2023/08/05 02:44:18;;;;;;;;;;;;;;;13.78;100.00;101568.38;5074502;28;20390;-79
2023/08/05 02:47:04;;;;;;;;;;;;;;;13.77;100.00;101572.81;5077810;28;20370;-79
2023/08/05 02:49:50;;;;;;;;;;;;;;;13.75;100.00;101563.19;5081000;28;19947;-80
2023/08/05 02:52:36;;;;;;;;;;;;;;;13.76;100.00;101551.59;5059935;28;19927;-79
2023/08/05 02:55:21;;;;;;;;;;;;;;;13.78;100.00;101563.06;5057962;28;19974;-80
2023/08/05 02:58:07;;;;;;;;;;;;;;;13.81;100.00;101568.22;5074200;28;19959;-80
2023/08/05 03:00:53;;;;;;;;;;;;;;;13.80;100.00;101566.50;5064216;28;20065;-79
2023/08/05 03:03:40;;;;;;;;;;;;;;;13.81;100.00;101561.13;5075214;28;20382;-80
2023/08/05 03:06:26;;;;;;;;;;;;;;;13.84;100.00;101560.94;5079285;28;19958;-79
2023/08/05 03:09:14;;;;;;;;;;;;;;;13.85;100.00;101556.50;5061614;28;19928;-79
2023/08/05 03:12:00;;;;;;;;;;;;;;;13.84;100.00;101560.94;5078940;28;19966;-79
2023/08/05 03:14:45;;;;;;;;;;;;;;;13.84;100.00;101552.97;5080805;28;20363;-79
2023/08/05 03:17:31;;;;;;;;;;;;;;;13.85;100.00;101556.50;5065102;28;21428;-80
2023/08/05 03:20:24;;;;;;;;;;;;;;;13.85;100.00;101559.16;5078644;28;19924;-79
2023/08/05 03:23:10;;;;;;;;;;;;;;;13.85;100.00;101560.00;5064337;28;19944;-79
2023/08/05 03:25:56;;;;;;;;;;;;;;;13.84;100.00;101557.44;5051010;28;20422;-80
2023/08/05 03:28:42;;;;;;;;;;;;;;;13.82;100.00;101554.84;5062752;28;20362;-80
2023/08/05 03:31:27;;;;;;;;;;;;;;;13.83;100.00;101555.69;5081547;28;19951;-79
2023/08/05 03:34:16;;;;;;;;;;;;;;;13.80;100.00;101546.09;5062919;28;19942;-79
2023/08/05 03:37:01;;;;;;;;;;;;;;;13.81;100.00;101552.25;5079484;28;19930;-79
2023/08/05 03:39:48;;;;;;;;;;;;;;;13.80;100.00;101548.75;5078508;28;20022;-79
2023/08/05 03:42:33;;;;;;;;;;;;;;;13.79;100.00;101538.16;5079365;28;19926;-80
2023/08/05 03:45:21;;;;;;;;;;;;;;;13.79;100.00;101530.19;5063451;28;19927;-79
2023/08/05 03:48:07;;;;;;;;;;;;;;;13.79;100.00;101527.53;5049409;28;19930;-80
2023/08/05 03:50:53;;;;;;;;;;;;;;;13.82;100.00;101524.69;5078668;28;20420;-80
2023/08/05 03:53:38;;;;;;;;;;;;;;;13.81;100.00;101521.19;5064244;28;19940;-79
2023/08/05 03:56:26;;;;;;;;;;;;;;;13.83;100.00;101521.09;5078795;28;19923;-79
2023/08/05 03:59:12;;;;;;;;;;;;;;;13.84;100.00;101512.19;5077140;28;19992;-79
2023/08/05 04:02:01;;;;;;;;;;;;;;;13.85;100.00;101505.94;5080576;28;19919;-80
2023/08/05 04:04:49;;;;;;;;;;;;;;;13.85;100.00;101506.78;5077364;28;19920;-80
2023/08/05 04:07:35;;;;;;;;;;;;;;;13.85;100.00;101504.13;5074525;28;19932;-80
2023/08/05 04:10:22;;;;;;;;;;;;;;;13.88;100.00;101504.94;5072957;28;19928;-80
2023/08/05 04:13:11;;;;;;;;;;;;;;;13.89;100.00;101503.97;5060893;28;19935;-80
2023/08/05 04:15:59;;;;;;;;;;;;;;;13.92;100.00;101503.81;5077672;28;19920;-80
2023/08/05 04:18:46;;;;;;;;;;;;;;;13.93;100.00;101493.09;5079561;28;19924;-80
2023/08/05 04:21:39;;;;;;;;;;;;;;;13.95;100.00;101501.88;5061626;28;19924;-80
2023/08/05 04:24:28;;;;;;;;;;;;;;;13.98;100.00;101495.53;5079994;28;19924;-80
2023/08/05 04:27:14;;;;;;;;;;;;;;;14.01;100.00;101495.41;5078896;28;19923;-80
2023/08/05 04:30:01;;;;;;;;;;;;;;;14.02;100.00;101490.91;5076778;28;19962;-80
2023/08/05 04:32:47;;;;;;;;;;;;;;;14.03;100.00;101492.63;5076452;28;19935;-80
2023/08/05 04:35:33;;;;;;;;;;;;;;;14.05;100.00;101485.47;5064288;28;19927;-80
2023/08/05 04:38:28;;;;;;;;;;;;;;;14.06;100.00;101487.19;5075413;28;20374;-81
2023/08/05 04:41:14;;;;;;;;;;;;;;;14.04;100.00;101468.59;5079129;28;19995;-81
2023/08/05 04:44:00;;;;;;;;;;;;;;;14.00;100.00;101467.03;5077798;28;20015;-80
2023/08/05 04:46:46;;;;;;;;;;;;;;;13.98;100.00;101456.47;5079172;28;19924;-80
2023/08/05 04:49:31;;;;;;;;;;;;;;;13.97;100.00;101457.44;5077652;28;19950;-81
2023/08/05 04:52:19;;;;;;;;;;;;;;;13.97;100.00;101452.09;5062832;28;19930;-80
2023/08/05 04:55:11;;;;;;;;;;;;;;;13.98;100.00;101452.94;5078435;28;19958;-80
2023/08/05 04:57:57;;;;;;;;;;;;;;;13.98;100.00;101458.28;5072800;28;19919;-81
2023/08/05 05:00:42;;;;;;;;;;;;;;;13.97;100.00;101440.56;5065136;28;19959;-80
2023/08/05 05:03:33;;;;;;;;;;;;;;;13.97;100.00;101445.91;5080030;28;20402;-81
2023/08/05 05:06:18;;;;;;;;;;;;;;;13.98;100.00;101439.63;5080394;28;20526;-80
2023/08/05 05:09:04;;;;;;;;;;;;;;;13.98;100.00;101437.84;5076972;28;19931;-80
2023/08/05 05:11:50;;;;;;;;;;;;;;;13.99;100.00;101434.25;5065799;28;19923;-81
2023/08/05 05:14:41;;;;;;;;;;;;;;;14.01;100.00;101431.50;5076083;28;19931;-80
2023/08/05 05:17:32;;;;;;;;;;;;;;;14.04;100.00;101433.13;5079338;28;19916;-81
2023/08/05 05:20:17;;;;;;;;;;;;;;;14.05;100.00;101434.88;5058297;28;19975;-81
2023/08/05 05:23:03;;;;;;;;;;;;;;;14.07;100.00;101428.53;5067886;28;19951;-81
2023/08/05 05:25:51;;;;;;;;;;;;;;;14.11;100.00;101422.09;5074627;28;19949;-81
2023/08/05 05:28:41;;;;;;;;;;;;;;;14.16;100.00;101421.84;5045176;28;19974;-81
2023/08/05 05:31:27;;;;;;;;;;;;;;;14.21;100.00;101414.50;5070789;28;19935;-82
2023/08/05 05:34:12;;;;;;;;;;;;;;;14.29;100.00;101413.25;5073818;28;19930;-81
2023/08/05 05:36:58;;;;;;;;;;;;;;;14.32;100.00;101407.78;5076930;28;19924;-81
2023/08/05 05:39:44;;;;;;;;;;;;;;;14.37;100.00;101414.56;5077105;28;19920;-81
2023/08/05 05:42:30;;;;;;;;;;;;;;;14.43;100.00;101416.03;5075389;28;20002;-81
2023/08/05 05:45:21;;;;;;;;;;;;;;;14.45;100.00;101414.16;5078509;28;19951;-81
2023/08/05 05:48:06;;;;;;;;;;;;;;;14.49;100.00;101415.72;5077140;28;19927;-80
2023/08/05 05:50:52;;;;;;;;;;;;;;;14.52;100.00;101420.03;5077737;28;19969;-79
2023/08/05 05:53:38;;;;;;;;;;;;;;;14.55;100.00;101411.88;5073710;28;20958;-76
2023/08/05 05:56:26;;;;;;;;;;;;;;;14.58;100.00;101409.03;5076609;28;20034;-77
2023/08/05 05:59:11;;;;;;;;;;;;;;;14.60;100.00;101411.63;5075782;28;20460;-77
2023/08/05 06:01:57;;;;;;;;;;;;;;;14.62;100.00;101405.28;5073011;28;20030;-76
2023/08/05 06:04:44;;;;;;;;;;;;;;;14.66;100.00;101405.97;5070946;28;20341;-76
2023/08/05 06:07:29;;;;;;;;;;;;;;;14.71;100.00;101406.56;5075187;28;19931;-76
2023/08/05 06:10:15;;;;;;;;;;;;;;;14.77;100.00;101406.25;5076145;28;19931;-77
2023/08/05 06:13:03;;;;;;;;;;;;;;;14.83;100.00;101396.22;5062009;28;19919;-76
2023/08/05 06:15:49;;;;;;;;;;;;;;;14.87;100.00;101390.63;5073098;28;20011;-77
2023/08/05 06:18:34;;;;;;;;;;;;;;;14.92;100.00;101390.38;5051027;28;19920;-77
2023/08/05 06:21:20;;;;;;;;;;;;;;;14.98;100.00;101395.38;5082201;28;20808;-78
2023/08/05 06:24:06;;;;;;;;;;;;;;;15.03;100.00;101395.97;5081895;28;19932;-79
2023/08/05 06:26:54;;;;;;;;;;;;;;;15.07;100.00;101392.22;5083039;28;20465;-84
2023/08/05 06:29:40;;;;;;;;;;;;;;;15.12;100.00;101396.41;5081632;28;19920;-80
2023/08/05 06:32:25;;;;;;;;;;;;;;;15.15;100.00;101396.25;5082416;28;19931;-80
2023/08/05 06:35:13;;;;;;;;;;;;;;;15.19;100.00;101395.13;5085606;28;19923;-80
2023/08/05 06:37:59;;;;;;;;;;;;;;;15.22;100.00;101392.28;5081042;28;19935;-78
2023/08/05 06:40:45;;;;;;;;;;;;;;;15.26;100.00;101399.16;5080917;28;19927;-76
2023/08/05 06:43:31;;;;;;;;;;;;;;;15.29;100.00;101393.66;5081454;28;20023;-77
2023/08/05 06:46:17;;;;;;;;;;;;;;;15.33;100.00;101394.34;5064928;28;19933;-77
2023/08/05 06:49:03;;;;;;;;;;;;;;;15.36;100.00;101398.66;5080384;28;19920;-77
2023/08/05 06:51:50;;;;;;;;;;;;;;;15.39;100.00;101399.34;5065367;28;19984;-77
2023/08/05 06:54:36;;;;;;;;;;;;;;;15.43;100.00;101384.00;5062695;28;19928;-77
2023/08/05 06:57:22;;;;;;;;;;;;;;;15.46;100.00;101384.69;5080565;28;19928;-77
2023/08/05 07:00:08;;;;;;;;;;;;;;;15.52;100.00;101385.28;5077854;28;20022;-77
2023/08/05 07:02:57;;;;;;;;;;;;;;;15.60;100.00;101380.38;5076224;28;19920;-75
2023/08/05 07:05:42;;;;;;;;;;;;;;;15.71;100.00;101374.41;5075143;28;20342;-76
2023/08/05 07:08:29;;;;;;;;;;;;;;;15.78;100.00;101377.53;5077925;28;21060;-77
2023/08/05 07:11:14;;;;;;;;;;;;;;;15.83;100.00;101379.00;5073111;28;19920;-77
2023/08/05 07:14:00;;;;;;;;;;;;;;;15.91;100.00;101377.69;5064536;28;19920;-76
2023/08/05 07:16:46;;;;;;;;;;;;;;;15.95;100.00;101366.78;5062797;28;19924;-76
2023/08/05 07:19:31;;;;;;;;;;;;;;;16.00;100.00;101374.50;5062319;28;19924;-78
2023/08/05 07:22:17;;;;;;;;;;;;;;;16.05;100.00;101375.09;5072514;28;19920;-82
2023/08/05 07:25:03;;;;;;;;;;;;;;;16.09;100.00;101365.94;5063771;28;20317;-82
2023/08/05 07:27:52;;;;;;;;;;;;;;;16.13;100.00;101370.13;5085970;28;19925;-80
2023/08/05 07:30:37;;;;;;;;;;;;;;;16.20;100.00;101367.97;5085113;28;20004;-79
2023/08/05 07:33:23;;;;;;;;;;;;;;;16.27;100.00;101360.41;5086899;28;20416;-75
2023/08/05 07:36:12;;;;;;;;;;;;;;;16.32;100.00;101358.31;5082725;28;19927;-77
2023/08/05 07:39:00;;;;;;;;;;;;;;;16.34;100.00;101356.41;5081529;28;19900;-76
2023/08/05 07:41:48;;;;;;;;;;;;;;;16.36;100.00;101354.53;5073323;28;19928;-76
2023/08/05 07:44:33;;;;;;;;;;;;;;;16.40;100.00;101353.34;5064483;28;19924;-77
2023/08/05 07:47:22;;;;;;;;;;;;;;;16.43;100.00;101357.66;5080584;28;19938;-79
2023/08/05 07:50:10;;;;;;;;;;;;;;;16.44;100.00;101354.03;5082958;28;19920;-77
2023/08/05 07:52:55;;;;;;;;;;;;;;;16.45;100.00;101344.22;5044625;28;20379;-76
2023/08/05 07:55:42;;;;;;;;;;;;;;;16.46;100.00;101341.44;5070874;28;19931;-78
2023/08/05 07:58:46;;;;;;;;;;;;;;;16.51;100.00;101335.81;5076488;28;19977;-83
2023/08/05 08:01:35;;;;;;;;;;;;;;;16.56;100.00;101337.22;5071450;28;19934;-83
2023/08/05 08:04:21;;;;;;;;;;;;;;;16.61;100.00;101344.94;5051713;28;19920;-84
2023/08/05 08:07:08;;;;;;;;;;;;;;;16.62;100.00;101338.66;5069065;28;19928;-83
2023/08/05 08:09:54;;;;;;;;;;;;;;;16.63;100.00;101329.69;5084579;28;19928;-85
2023/08/05 08:12:53;;;;;;;;;;;;;;;;;;;;;
2023/08/05 08:15:45;;;;;;;;;;;;;;;16.65;100.00;101318.88;5083935;28;19955;-85
2023/08/05 08:18:31;;;;;;;;;;;;;;;16.67;100.00;101323.19;5072895;28;19943;-85
2023/08/05 08:21:18;;;;;;;;;;;;;;;16.76;100.00;101311.03;5069299;28;19923;-84
2023/08/05 08:24:07;;;;;;;;;;;;;;;16.87;100.00;101306.81;5064686;28;19946;-84
2023/08/05 08:26:53;;;;;;;;;;;;;;;16.91;100.00;101292.28;5087778;28;20706;-85
2023/08/05 08:29:40;;;;;;;;;;;;;;;16.96;100.00;101299.03;5066158;28;19958;-85
2023/08/05 08:32:26;;;;;;;;;;;;;;;17.03;100.00;101294.19;5079187;28;19920;-84
2023/08/05 08:35:12;;;;;;;;;;;;;;;17.02;100.00;101284.47;5076408;28;20401;-87
2023/08/05 08:38:05;;;;;;;;;;;;;;;17.05;100.00;101278.91;5083741;28;19919;-87
2023/08/05 08:41:10;;;;;;;;;;;;;;;17.10;100.00;101289.28;5088943;28;19959;-86
2023/08/05 08:43:56;;;;;;;;;;;;;;;17.17;100.00;101284.41;5061672;28;20178;-80
2023/08/05 08:46:42;;;;;;;;;;;;;;;17.27;100.00;101290.00;5083523;28;19943;-85
2023/08/05 08:49:28;;;;;;;;;;;;;;;17.36;100.00;101276.84;5072601;28;19978;-84
2023/08/05 08:52:14;;;;;;;;;;;;;;;17.43;100.00;101271.94;5084263;28;19919;-84
2023/08/05 08:55:00;;;;;;;;;;;;;;;17.47;100.00;101272.59;5089466;28;19920;-86
2023/08/05 08:57:45;;;;;;;;;;;;;;;17.51;100.00;101256.22;5088490;28;19916;-84
2023/08/05 09:00:32;;;;;;;;;;;;;;;17.54;100.00;101255.13;5096213;28;20025;-85
2023/08/05 09:03:25;;;;;;;;;;;;;;;17.61;100.00;101253.75;5075741;28;19923;-86
2023/08/05 09:06:10;;;;;;;;;;;;;;;17.72;100.00;101253.03;5086973;28;19982;-86
2023/08/05 09:08:56;;;;;;;;;;;;;;;17.87;100.00;101248.41;5091725;28;19963;-85
2023/08/05 09:11:42;;;;;;;;;;;;;;;18.05;100.00;101240.91;5091008;28;19951;-85
2023/08/05 09:14:28;;;;;;;;;;;;;;;18.17;100.00;101247.25;5081992;28;19970;-88
2023/08/05 09:17:16;;;;;;;;;;;;;;;18.18;100.00;101242.72;5067708;28;19924;-87
2023/08/05 09:20:16;;;;;;;;;;;;;;;18.11;100.00;101244.13;5063084;28;19977;-86
2023/08/05 09:23:03;;;;;;;;;;;;;;;18.09;100.00;101243.41;5077675;28;19919;-86
2023/08/05 09:25:49;;;;;;;;;;;;;;;18.05;100.00;101235.56;5059456;28;19946;-88
2023/08/05 09:28:38;;;;;;;;;;;;;;;18.03;100.00;101232.13;5094661;28;20022;-86
2023/08/05 09:31:40;;;;;;;;;;;;;;;18.07;100.00;101227.44;5089203;28;20362;-86
2023/08/05 09:34:50;;;;;;;;;;;;;;;18.15;100.00;101227.72;5092860;28;19931;-87
2023/08/05 09:37:37;;;;;;;;;;;;;;;18.23;100.00;101221.81;5088936;28;19920;-83
2023/08/05 09:40:28;;;;;;;;;;;;;;;18.29;100.00;101216.03;5075428;28;19971;-84
2023/08/05 09:43:14;;;;;;;;;;;;;;;18.32;100.00;101206.91;5066927;28;20041;-86
2023/08/05 09:46:02;;;;;;;;;;;;;;;18.36;100.00;101204.88;5044449;28;19920;-78
2023/08/05 09:49:08;;;;;;;;;;;;;;;18.42;100.00;101197.22;5066067;28;19920;-83
2023/08/05 09:51:57;;;;;;;;;;;;;;;18.44;100.00;101205.16;5076884;28;19962;-78
2023/08/05 09:54:44;;;;;;;;;;;;;;;18.47;100.00;101191.53;5074437;28;20353;-77
2023/08/05 09:57:30;;;;;;;;;;;;;;;18.55;100.00;101194.50;5079606;28;20279;-79
2023/08/05 10:00:16;;;;;;;;;;;;;;;18.56;100.00;101181.94;5065193;28;20372;-81
2023/08/05 10:03:04;;;;;;;;;;;;;;;18.56;100.00;101176.56;5080689;28;19939;-80
2023/08/05 10:05:49;;;;;;;;;;;;;;;18.66;100.00;101174.94;5079038;28;19920;-79
2023/08/05 10:08:36;;;;;;;;;;;;;;;18.82;100.00;101163.91;5080363;28;20033;-80
2023/08/05 10:11:22;;;;;;;;;;;;;;;18.96;100.00;101165.53;5077194;28;19923;-78
2023/08/05 10:14:07;;;;;;;;;;;;;;;19.02;100.00;101164.25;5073993;28;19927;-80
2023/08/05 10:16:55;;;;;;;;;;;;;;;19.13;100.00;101160.75;5060147;28;19927;-78
2023/08/05 10:19:41;;;;;;;;;;;;;;;19.13;100.00;101168.81;5075021;28;19970;-79
2023/08/05 10:22:27;;;;;;;;;;;;;;;19.12;100.00;101157.19;5073190;28;19951;-81
2023/08/05 10:25:13;;;;;;;;;;;;;;;19.10;100.00;101153.78;5065311;28;19920;-82
2023/08/05 10:27:58;;;;;;;;;;;;;;;19.09;100.00;101146.72;5074886;28;19930;-79
2023/08/05 10:30:44;;;;;;;;;;;;;;;19.14;100.00;101139.16;5059646;28;19923;-77
2023/08/05 10:33:30;;;;;;;;;;;;;;;19.17;100.00;101137.22;5071364;28;19925;-78
2023/08/05 10:36:18;;;;;;;;;;;;;;;19.13;100.00;101137.44;5075401;28;20478;-83
2023/08/05 10:39:04;;;;;;;;;;;;;;;19.10;100.00;101137.69;5074716;28;19924;-80
2023/08/05 10:41:50;;;;;;;;;;;;;;;19.07;100.00;101139.75;5068307;28;20015;-81
2023/08/05 10:44:36;;;;;;;;;;;;;;;19.03;100.00;101128.41;5053619;28;19924;-80
2023/08/05 10:47:22;;;;;;;;;;;;;;;19.03;100.00;101124.84;5046335;28;21510;-84
2023/08/05 10:50:07;;;;;;;;;;;;;;;19.00;100.00;101116.06;5064659;28;19920;-84
2023/08/05 10:52:55;;;;;;;;;;;;;;;19.07;100.00;101118.28;5069564;28;19942;-87
2023/08/05 10:55:50;;;;;;;;;;;;;;;19.09;100.00;101117.22;5057036;28;19923;-83
2023/08/05 10:58:37;;;;;;;;;;;;;;;19.06;100.00;101106.69;5057915;28;20457;-82
2023/08/05 11:01:32;;;;;;;;;;;;;;;18.94;100.00;101102.25;5046310;28;19920;-84
2023/08/05 11:04:28;;;;;;;;;;;;;;;18.82;100.00;101104.91;5048297;28;19931;-84
2023/08/05 11:07:16;;;;;;;;;;;;;;;18.77;100.00;101093.69;5060809;28;20275;-84
2023/08/05 11:10:03;;;;;;;;;;;;;;;18.78;100.00;101090.03;5064191;28;19928;-85
2023/08/05 11:12:52;;;;;;;;;;;;;;;18.84;100.00;101084.19;5062539;28;20074;-85
2023/08/05 11:15:41;;;;;;;;;;;;;;;18.94;100.00;101084.34;5060319;28;19943;-84
2023/08/05 11:18:34;;;;;;;;;;;;;;;19.00;100.00;101070.44;5057054;28;19925;-87
2023/08/05 11:21:20;;;;;;;;;;;;;;;19.06;100.00;101063.78;5048393;28;19944;-84
2023/08/05 11:24:08;;;;;;;;;;;;;;;19.08;100.00;101056.47;5061067;28;19982;-83
2023/08/05 11:26:54;;;;;;;;;;;;;;;19.01;100.00;101055.19;5049727;28;20007;-83
2023/08/05 11:29:40;;;;;;;;;;;;;;;18.96;100.00;101057.41;5063385;28;20023;-81
2023/08/05 11:32:25;;;;;;;;;;;;;;;18.97;100.00;101053.75;5029167;28;19990;-85
2023/08/05 11:35:11;;;;;;;;;;;;;;;19.04;100.00;101055.00;5062233;28;19998;-86
2023/08/05 11:37:57;;;;;;;;;;;;;;;19.11;100.00;101044.63;5044662;28;19905;-82
2023/08/05 11:40:47;;;;;;;;;;;;;;;19.14;100.00;101042.53;5061507;28;19935;-78
2023/08/05 11:43:34;;;;;;;;;;;;;;;19.18;100.00;101023.53;5051186;28;20373;-79
2023/08/05 11:46:27;;;;;;;;;;;;;;;19.26;100.00;101018.41;5046379;28;19942;-80
2023/08/05 11:49:13;;;;;;;;;;;;;;;19.32;100.00;101014.38;5061767;28;20439;-80
2023/08/05 11:51:59;;;;;;;;;;;;;;;19.30;100.00;101009.16;5040587;28;19927;-79
2023/08/05 11:54:47;;;;;;;;;;;;;;;19.23;100.00;100999.88;5057816;28;20058;-80
2023/08/05 11:57:33;;;;;;;;;;;;;;;19.19;100.00;100996.59;5038676;28;19943;-80
2023/08/05 12:00:19;;;;;;;;;;;;;;;19.17;100.00;100986.94;5056088;28;19928;-80
2023/08/05 12:03:05;;;;;;;;;;;;;;;19.18;100.00;100989.50;5057328;28;20117;-79
2023/08/05 12:05:50;;;;;;;;;;;;;;;19.25;100.00;100992.56;5057654;28;19951;-81
2023/08/05 12:08:38;;;;;;;;;;;;;;;19.30;100.00;100987.69;5057243;28;20021;-81
2023/08/05 12:11:23;;;;;;;;;;;;;;;19.34;100.00;100990.97;5038404;28;19920;-81
2023/08/05 12:14:15;;;;;;;;;;;;;;;19.37;100.00;100988.88;5035537;28;19936;-80
2023/08/05 12:17:01;;;;;;;;;;;;;;;19.34;100.00;100983.75;5025985;28;19924;-79
2023/08/05 12:19:46;;;;;;;;;;;;;;;19.28;100.00;100986.94;5038004;28;19962;-80
2023/08/05 12:22:32;;;;;;;;;;;;;;;19.27;100.00;100980.72;5049816;28;19945;-80
2023/08/05 12:25:18;;;;;;;;;;;;;;;19.27;100.00;100972.66;5049073;28;21981;-79
2023/08/05 12:28:07;;;;;;;;;;;;;;;19.25;100.00;100971.09;5040570;28;19934;-80
2023/08/05 12:30:53;;;;;;;;;;;;;;;19.24;100.00;100972.06;5056498;28;19924;-81
2023/08/05 12:33:39;;;;;;;;;;;;;;;19.22;100.00;100965.94;5055436;28;19928;-79
2023/08/05 12:36:25;;;;;;;;;;;;;;;19.18;100.00;100962.66;5057565;28;20338;-79
2023/08/05 12:39:11;;;;;;;;;;;;;;;19.14;100.00;100954.00;5050395;28;19951;-80
2023/08/05 12:41:59;;;;;;;;;;;;;;;19.11;100.00;100962.31;5058061;28;20023;-79
2023/08/05 12:44:45;;;;;;;;;;;;;;;19.07;100.00;100960.00;5059790;28;19990;-78
2023/08/05 12:47:34;;;;;;;;;;;;;;;19.04;100.00;100946.81;5058486;28;20306;-82
2023/08/05 12:50:19;;;;;;;;;;;;;;;19.03;100.00;100954.03;5055559;28;20485;-81
2023/08/05 12:53:05;;;;;;;;;;;;;;;19.02;100.00;100944.28;5058237;28;19936;-84
2023/08/05 12:56:03;;;;;;;;;;;;;;;18.99;100.00;100942.66;5042126;28;19928;-81
2023/08/05 12:58:49;;;;;;;;;;;;;;;18.96;100.00;100940.22;5038624;28;19931;-81
2023/08/05 13:01:35;;;;;;;;;;;;;;;18.92;100.00;100938.75;5041170;28;19964;-82
2023/08/05 13:04:21;;;;;;;;;;;;;;;18.90;100.00;100945.22;5055396;28;19928;-81
2023/08/05 13:07:06;;;;;;;;;;;;;;;18.86;100.00;100950.81;5049146;28;20450;-82
2023/08/05 13:09:52;;;;;;;;;;;;;;;18.80;100.00;100959.34;5057730;28;19924;-80
2023/08/05 13:12:38;;;;;;;;;;;;;;;18.64;100.00;100981.16;5053911;28;19928;-80
2023/08/05 13:15:23;;;;;;;;;;;;;;;18.14;100.00;100974.19;5063294;28;20346;-79
2023/08/05 13:18:12;;;;;;;;;;;;;;;17.71;100.00;100975.53;5055419;28;19954;-81
2023/08/05 13:21:03;;;;;;;;;;;;;;;17.33;100.00;100988.06;5064570;28;19928;-78
2023/08/05 13:23:49;;;;;;;;;;;;;;;16.94;100.00;100988.09;5036491;28;20001;-79
2023/08/05 13:26:37;;;;;;;;;;;;;;;16.61;100.00;100980.63;5046128;28;19924;-78
2023/08/05 13:29:23;;;;;;;;;;;;;;;16.04;100.00;100990.66;5017411;28;19924;-85
2023/08/05 13:32:21;;;;;;;;;;;;;;;15.20;100.00;100997.66;5052255;28;20034;-90
2023/08/05 13:35:14;;;;;;;;;;;;;;;14.47;100.00;101001.19;5041064;28;20018;-84
2023/08/05 13:38:02;;;;;;;;;;;;;;;14.11;100.00;101001.44;5046784;28;19929;-86
2023/08/05 13:40:52;;;;;;;;;;;;;;;13.91;100.00;100991.97;5031744;28;20335;-89
2023/08/05 13:43:37;;;;;;;;;;;;;;;13.80;100.00;100976.63;5038729;28;19928;-86
2023/08/05 13:46:23;;;;;;;;;;;;;;;13.71;100.00;100979.78;5050334;28;19924;-88
2023/08/05 13:49:08;;;;;;;;;;;;;;;13.61;100.00;100984.75;5035804;28;19924;-88
2023/08/05 13:51:54;;;;;;;;;;;;;;;13.49;100.00;100977.47;5042962;28;19936;-89
2023/08/05 13:54:40;;;;;;;;;;;;;;;13.47;100.00;100958.09;5031095;28;20426;-81
2023/08/05 13:57:26;;;;;;;;;;;;;;;13.46;100.00;100943.94;5052777;28;19937;-85
2023/08/05 14:00:12;;;;;;;;;;;;;;;13.47;100.00;100943.00;5036186;28;19955;-87
2023/08/05 14:03:01;;;;;;;;;;;;;;;13.49;100.00;100950.88;5044518;28;19932;-87
2023/08/05 14:05:46;;;;;;;;;;;;;;;13.53;100.00;100945.31;5030477;28;20437;-87
2023/08/05 14:08:32;;;;;;;;;;;;;;;13.53;100.00;100934.69;5026446;28;19942;-86